createdAt,value
2022-12-03T00:00:56.825Z,18.83
2022-12-03T00:03:25.287Z,21.83
2022-12-03T00:05:53.735Z,18.50
2022-12-03T00:08:22.013Z,34.97
2022-12-03T00:10:50.016Z,21.15
2022-12-03T00:13:18.570Z,16.13
2022-12-03T00:15:46.757Z,20.67
2022-12-03T00:18:15.272Z,26.67
2022-12-03T00:20:43.247Z,23.08
2022-12-03T00:23:11.676Z,19.88
2022-12-03T00:25:39.768Z,21.45
2022-12-03T00:28:08.103Z,20.70
2022-12-03T00:30:36.207Z,18.67
2022-12-03T00:33:05.635Z,17.15
2022-12-03T00:35:33.583Z,12.77
2022-12-03T00:38:02.014Z,13.40
2022-12-03T00:40:30.102Z,11.93
2022-12-03T00:42:58.453Z,11.90
2022-12-03T00:45:26.496Z,12.52
2022-12-03T00:47:55.181Z,12.15
2022-12-03T00:50:23.614Z,12.45
2022-12-03T00:52:53.294Z,15.05
2022-12-03T00:55:21.392Z,14.18
2022-12-03T00:57:49.813Z,15.23
2022-12-03T01:00:18.232Z,13.02
2022-12-03T01:02:46.543Z,14.05
2022-12-03T01:05:14.658Z,13.32
2022-12-03T01:07:43.242Z,13.70
2022-12-03T01:10:11.854Z,12.23
2022-12-03T01:12:40.877Z,13.20
2022-12-03T01:15:10.063Z,12.57
2022-12-03T01:17:39.162Z,12.18
2022-12-03T01:20:09.851Z,12.20
2022-12-03T01:22:38.341Z,11.98
2022-12-03T01:25:07.133Z,14.73
2022-12-03T01:27:35.638Z,11.00
2022-12-03T01:30:05.645Z,11.20
2022-12-03T01:32:34.134Z,11.10
2022-12-03T01:35:02.133Z,11.27
2022-12-03T01:37:30.649Z,10.52
2022-12-03T01:39:58.686Z,11.90
2022-12-03T01:42:30.558Z,11.00
2022-12-03T01:45:00.734Z,11.10
2022-12-03T01:47:32.611Z,10.05
2022-12-03T01:50:08.731Z,10.70
2022-12-03T01:52:39.795Z,10.80
2022-12-03T01:55:15.049Z,10.43
2022-12-03T01:57:50.686Z,13.30
2022-12-03T02:00:22.336Z,10.85
2022-12-03T02:02:57.206Z,10.02
2022-12-03T02:05:31.482Z,9.50
2022-12-03T02:08:01.066Z,10.45
2022-12-03T02:10:36.474Z,9.82
2022-12-03T03:07:08.866Z,10.40
2022-12-03T03:09:37.895Z,10.75
2022-12-03T03:12:06.335Z,10.18
2022-12-03T03:14:35.746Z,10.50
2022-12-03T03:17:04.625Z,10.30
2022-12-03T03:19:34.516Z,9.57
2022-12-03T03:22:02.690Z,9.75
2022-12-03T03:24:31.046Z,10.50
2022-12-03T03:26:59.077Z,11.50
2022-12-03T03:29:27.556Z,10.45
2022-12-03T03:31:56.502Z,10.02
2022-12-03T03:34:25.738Z,9.57
2022-12-03T03:36:53.978Z,9.73
2022-12-03T03:39:22.850Z,9.23
2022-12-03T03:41:51.036Z,9.65
2022-12-03T03:44:19.619Z,9.52
2022-12-03T03:46:49.056Z,10.18
2022-12-03T03:49:17.676Z,11.13
2022-12-03T03:51:45.705Z,11.05
2022-12-03T03:54:14.956Z,10.68
2022-12-03T03:56:43.329Z,10.85
2022-12-03T03:59:14.238Z,11.23
2022-12-03T04:01:45.066Z,10.80
2022-12-03T04:04:21.083Z,11.02
2022-12-03T04:06:49.495Z,11.50
2022-12-03T04:09:17.914Z,11.55
2022-12-03T04:12:04.438Z,10.55
2022-12-03T04:14:32.926Z,9.93
2022-12-03T04:17:01.147Z,11.00
2022-12-03T04:19:30.747Z,10.15
2022-12-03T04:22:17.811Z,10.40
2022-12-03T04:24:47.616Z,10.43
2022-12-03T04:27:34.006Z,11.77
2022-12-03T04:30:02.418Z,11.38
2022-12-03T04:32:49.037Z,10.55
2022-12-03T04:35:35.877Z,9.93
2022-12-03T04:38:04.078Z,10.50
2022-12-03T04:40:50.946Z,10.65
2022-12-03T04:43:18.916Z,11.30
2022-12-03T04:45:48.346Z,10.85
2022-12-03T04:48:16.610Z,10.32
2022-12-03T04:50:44.937Z,10.15
2022-12-03T04:53:13.165Z,10.40
2022-12-03T04:55:41.718Z,10.27
2022-12-03T04:58:10.626Z,10.20
2022-12-03T05:00:40.213Z,9.77
2022-12-03T05:03:08.405Z,10.10
2022-12-03T05:05:36.842Z,10.20
2022-12-03T05:08:05.151Z,10.80
2022-12-03T05:10:33.861Z,10.50
2022-12-03T05:13:01.869Z,10.70
2022-12-03T05:15:30.226Z,10.48
2022-12-03T05:17:58.333Z,11.45
2022-12-03T05:20:41.648Z,9.60
2022-12-03T05:23:11.945Z,9.70
2022-12-03T05:25:41.778Z,10.50
2022-12-03T05:28:09.977Z,9.63
2022-12-03T05:30:38.373Z,10.02
2022-12-03T05:33:06.416Z,9.88
2022-12-03T05:35:34.905Z,10.23
2022-12-03T05:38:03.774Z,9.32
2022-12-03T05:40:32.166Z,7.13
2022-12-03T05:43:02.167Z,6.55
2022-12-03T05:45:32.106Z,6.57
2022-12-03T05:48:01.298Z,5.25
2022-12-03T05:50:32.567Z,4.10
2022-12-03T05:53:16.808Z,4.10
2022-12-03T05:55:45.239Z,4.05
2022-12-03T05:58:13.285Z,3.85
2022-12-03T06:00:43.043Z,3.25
2022-12-03T06:03:11.470Z,3.40
2022-12-03T06:05:40.215Z,3.97
2022-12-03T06:08:08.335Z,3.50
2022-12-03T06:10:37.840Z,3.42
2022-12-03T06:13:05.865Z,3.65
2022-12-03T06:15:38.762Z,3.45
2022-12-03T06:18:10.622Z,3.25
2022-12-03T06:20:39.631Z,3.28
2022-12-03T06:23:07.610Z,3.63
2022-12-03T06:25:35.949Z,3.60
2022-12-03T06:28:04.118Z,3.15
2022-12-03T06:30:34.657Z,3.30
2022-12-03T06:33:02.790Z,3.38
2022-12-03T06:35:31.132Z,3.10
2022-12-03T06:37:59.211Z,3.25
2022-12-03T06:40:27.986Z,2.85
2022-12-03T06:42:56.014Z,3.08
2022-12-03T06:45:24.433Z,3.40
2022-12-03T06:47:52.555Z,3.38
2022-12-03T06:50:22.053Z,3.50
2022-12-03T06:52:50.164Z,2.97
2022-12-03T06:55:18.502Z,3.38
2022-12-03T06:57:46.440Z,3.50
2022-12-03T07:00:15.387Z,3.22
2022-12-03T07:02:45.876Z,3.50
2022-12-03T07:05:15.378Z,3.75
2022-12-03T07:07:43.514Z,3.30
2022-12-03T07:10:15.151Z,3.40
2022-12-03T07:12:43.166Z,3.33
2022-12-03T07:15:12.589Z,3.30
2022-12-03T07:17:40.718Z,3.22
2022-12-03T07:20:10.552Z,3.25
2022-12-03T07:22:38.838Z,3.75
2022-12-03T07:25:08.558Z,3.28
2022-12-03T07:27:36.529Z,3.28
2022-12-03T07:30:09.669Z,3.00
2022-12-03T07:32:37.767Z,3.10
2022-12-03T07:35:08.059Z,3.35
2022-12-03T07:37:36.110Z,2.83
2022-12-03T07:40:05.930Z,2.90
2022-12-03T07:42:34.021Z,3.42
2022-12-03T07:45:02.602Z,4.22
2022-12-03T07:47:30.699Z,4.18
2022-12-03T07:49:59.043Z,3.20
2022-12-03T07:52:27.088Z,3.85
2022-12-03T07:54:55.715Z,3.15
2022-12-03T07:57:24.449Z,2.90
2022-12-03T07:59:53.969Z,2.90
2022-12-03T08:02:22.206Z,3.42
2022-12-03T08:04:51.422Z,2.85
2022-12-03T08:07:24.755Z,2.15
2022-12-03T08:09:55.421Z,3.22
2022-12-03T08:12:40.453Z,3.67
2022-12-03T08:15:18.232Z,3.63
2022-12-03T08:17:48.119Z,3.53
2022-12-03T08:20:20.928Z,3.10
2022-12-03T08:22:51.579Z,3.50
2022-12-03T08:25:31.892Z,3.10
2022-12-03T08:28:21.929Z,3.92
2022-12-03T08:31:02.263Z,2.67
2022-12-03T08:33:35.691Z,2.90
2022-12-03T08:38:59.618Z,2.85
2022-12-03T08:41:48.964Z,2.97
2022-12-03T08:44:28.170Z,2.85
2022-12-03T08:47:13.171Z,2.47
2022-12-03T08:49:41.760Z,2.45
2022-12-03T08:52:15.543Z,2.72
2022-12-03T08:54:46.290Z,2.70
2022-12-03T08:57:35.008Z,2.45
2022-12-03T09:00:20.617Z,2.65
2022-12-03T09:02:52.981Z,2.95
2022-12-03T09:05:28.837Z,2.60
2022-12-03T09:07:57.383Z,2.53
2022-12-03T09:10:25.565Z,2.25
2022-12-03T09:12:54.008Z,1.90
2022-12-03T09:15:21.967Z,1.80
2022-12-03T09:17:51.658Z,2.15
2022-12-03T09:20:19.843Z,1.92
2022-12-03T09:22:48.730Z,1.92
2022-12-03T09:25:17.391Z,2.00
2022-12-03T09:27:46.211Z,2.42
2022-12-03T09:30:14.359Z,2.70
2022-12-03T09:32:44.079Z,2.22
2022-12-03T09:35:12.173Z,2.05
2022-12-03T09:37:41.478Z,2.08
2022-12-03T09:40:11.296Z,1.92
2022-12-03T09:42:40.448Z,2.13
2022-12-03T09:45:12.622Z,2.13
2022-12-03T09:47:46.087Z,1.23
2022-12-03T09:50:16.479Z,1.73
2022-12-03T09:52:45.729Z,2.25
2022-12-03T09:55:24.040Z,1.92
2022-12-03T09:57:54.060Z,1.23
2022-12-03T10:00:26.242Z,1.70
2022-12-03T10:02:59.680Z,1.50
2022-12-03T10:05:29.752Z,1.80
2022-12-03T10:08:07.250Z,1.73
2022-12-03T10:10:36.951Z,2.13
2022-12-03T10:13:06.732Z,1.67
2022-12-03T10:15:34.830Z,1.67
2022-12-03T10:18:18.421Z,2.65
2022-12-03T10:20:46.780Z,1.83
2022-12-03T10:23:27.757Z,1.95
2022-12-03T10:25:57.279Z,2.00
2022-12-03T10:28:47.402Z,2.10
2022-12-03T10:31:15.922Z,2.70
2022-12-03T10:33:47.463Z,2.35
2022-12-03T10:36:21.614Z,2.22
2022-12-03T10:39:16.680Z,2.42
2022-12-03T10:41:45.486Z,2.20
2022-12-03T10:44:22.929Z,2.33
2022-12-03T10:47:21.291Z,1.80
2022-12-03T10:50:03.553Z,1.88
2022-12-03T10:52:32.539Z,2.13
2022-12-03T10:55:02.118Z,2.03
2022-12-03T10:57:30.260Z,1.98
2022-12-03T10:59:58.900Z,1.90
2022-12-03T11:02:26.970Z,2.17
2022-12-03T11:04:55.865Z,2.03
2022-12-03T11:07:26.405Z,2.28
2022-12-03T11:09:56.969Z,1.95
2022-12-03T11:12:28.042Z,2.40
2022-12-03T11:15:05.307Z,2.38
2022-12-03T11:17:50.860Z,2.22
2022-12-03T11:20:24.782Z,2.45
2022-12-03T11:22:56.944Z,2.55
2022-12-03T11:25:26.773Z,2.38
2022-12-03T11:28:13.887Z,2.65
2022-12-03T11:30:51.615Z,2.30
2022-12-03T11:33:35.782Z,2.53
2022-12-03T11:36:04.147Z,2.55
2022-12-03T11:38:42.662Z,2.22
2022-12-03T11:41:24.319Z,2.00
2022-12-03T11:43:52.323Z,2.15
2022-12-03T11:46:37.222Z,2.22
2022-12-03T11:49:25.359Z,2.53
2022-12-03T11:51:53.742Z,2.70
2022-12-03T11:54:23.623Z,2.58
2022-12-03T11:56:56.339Z,2.20
2022-12-03T11:59:24.360Z,2.38
2022-12-03T12:01:52.629Z,2.40
2022-12-03T12:04:36.264Z,2.20
2022-12-03T12:07:04.688Z,2.28
2022-12-03T12:09:49.470Z,2.30
2022-12-03T12:12:30.963Z,2.42
2022-12-03T12:14:59.983Z,2.10
2022-12-03T12:17:33.984Z,1.95
2022-12-03T12:20:27.809Z,2.25
2022-12-03T12:22:56.423Z,2.17
2022-12-03T12:25:30.641Z,2.30
2022-12-03T12:27:58.960Z,2.60
2022-12-03T12:30:27.008Z,2.33
2022-12-03T12:33:10.469Z,2.38
2022-12-03T12:35:38.582Z,2.47
2022-12-03T12:38:06.957Z,2.53
2022-12-03T12:40:37.082Z,4.43
2022-12-03T12:43:16.420Z,2.80
2022-12-03T12:45:47.348Z,2.05
2022-12-03T12:48:32.158Z,2.70
2022-12-03T12:51:12.272Z,1.98
2022-12-03T12:53:43.165Z,2.35
2022-12-03T12:56:23.875Z,2.20
2022-12-03T12:58:53.636Z,2.22
2022-12-03T13:01:28.988Z,2.10
2022-12-03T13:03:58.631Z,2.38
2022-12-03T13:06:29.112Z,2.42
2022-12-03T13:09:01.420Z,2.38
2022-12-03T13:11:46.039Z,2.30
2022-12-03T13:14:19.456Z,2.22
2022-12-03T13:16:50.179Z,2.63
2022-12-03T13:19:23.257Z,2.15
2022-12-03T13:21:56.727Z,3.17
2022-12-03T13:24:34.060Z,2.70
2022-12-03T13:27:20.325Z,2.42
2022-12-03T13:30:14.141Z,2.17
2022-12-03T13:32:43.105Z,2.72
2022-12-03T13:35:30.622Z,2.10
2022-12-03T13:37:59.529Z,2.58
2022-12-03T13:40:31.563Z,2.90
2022-12-03T13:42:59.847Z,2.58
2022-12-03T13:45:45.533Z,2.38
2022-12-03T13:48:25.893Z,2.10
2022-12-03T13:50:54.731Z,2.50
2022-12-03T13:53:25.910Z,2.47
2022-12-03T13:56:15.864Z,2.25
2022-12-03T13:58:43.980Z,2.42
2022-12-03T14:01:12.420Z,2.20
2022-12-03T14:03:40.551Z,2.88
2022-12-03T14:06:09.097Z,2.70
2022-12-03T14:08:38.522Z,2.45
2022-12-03T14:11:08.543Z,2.30
2022-12-03T14:13:37.512Z,1.77
2022-12-03T14:16:06.110Z,2.45
2022-12-03T14:18:35.731Z,2.08
2022-12-03T14:21:04.130Z,2.08
2022-12-03T14:23:32.176Z,1.90
2022-12-03T14:26:00.780Z,2.10
2022-12-03T14:28:28.797Z,2.88
2022-12-03T14:30:57.279Z,2.70
2022-12-03T14:33:28.350Z,2.50
2022-12-03T14:35:57.702Z,2.22
2022-12-03T14:38:25.781Z,2.17
2022-12-03T14:40:54.461Z,2.25
2022-12-03T14:43:22.550Z,2.10
2022-12-03T14:45:52.105Z,2.40
2022-12-03T14:48:22.602Z,2.22
2022-12-03T14:50:51.154Z,2.22
2022-12-03T14:53:25.596Z,3.30
2022-12-03T14:55:57.230Z,2.67
2022-12-03T14:58:27.151Z,2.25
2022-12-03T15:00:55.638Z,2.25
2022-12-03T15:03:23.691Z,2.38
2022-12-03T15:05:52.011Z,2.95
2022-12-03T15:08:20.268Z,1.90
2022-12-03T15:10:48.884Z,2.28
2022-12-03T15:13:16.970Z,3.30
2022-12-03T15:15:45.525Z,2.95
2022-12-03T15:18:13.631Z,2.38
2022-12-03T15:20:41.971Z,2.28
2022-12-03T15:23:14.324Z,2.50
2022-12-03T15:25:43.200Z,2.10
2022-12-03T15:28:11.303Z,1.92
2022-12-03T15:30:39.782Z,2.72
2022-12-03T15:33:08.500Z,2.10
2022-12-03T15:35:37.178Z,2.30
2022-12-03T15:38:05.342Z,2.45
2022-12-03T15:40:34.761Z,2.28
2022-12-03T15:43:02.801Z,2.05
2022-12-03T15:45:32.679Z,2.53
2022-12-03T15:48:01.461Z,2.53
2022-12-03T15:50:30.269Z,3.95
2022-12-03T15:52:58.921Z,4.45
2022-12-03T15:55:27.380Z,3.35
2022-12-03T15:57:55.584Z,2.20
2022-12-03T16:00:24.203Z,3.00
2022-12-03T16:02:53.061Z,3.28
2022-12-03T16:05:21.663Z,2.63
2022-12-03T16:07:49.864Z,2.65
2022-12-03T16:10:21.630Z,2.50
2022-12-03T16:12:49.804Z,2.30
2022-12-03T16:15:21.002Z,2.70
2022-12-03T16:17:53.387Z,1.80
2022-12-03T16:20:21.851Z,2.60
2022-12-03T16:22:49.911Z,2.03
2022-12-03T16:25:18.741Z,2.50
2022-12-03T16:27:46.791Z,1.63
2022-12-03T16:30:15.421Z,2.10
2022-12-03T16:32:43.651Z,1.77
2022-12-03T16:35:12.010Z,1.95
2022-12-03T16:37:40.081Z,1.80
2022-12-03T16:40:09.771Z,3.85
2022-12-03T16:42:37.892Z,4.15
2022-12-03T16:45:10.134Z,5.32
2022-12-03T16:47:38.704Z,6.78
2022-12-03T16:50:10.690Z,3.42
2022-12-03T16:52:42.951Z,5.00
2022-12-03T16:55:12.410Z,4.78
2022-12-03T16:57:40.424Z,2.50
2022-12-03T17:00:09.480Z,3.88
2022-12-03T17:02:37.756Z,5.60
2022-12-03T17:05:06.852Z,2.80
2022-12-03T17:07:34.985Z,4.45
2022-12-03T17:10:04.692Z,3.35
2022-12-03T17:13:01.205Z,3.17
2022-12-03T17:15:23.455Z,3.30
2022-12-03T17:17:51.692Z,2.97
2022-12-03T17:20:20.523Z,3.08
2022-12-03T17:22:48.892Z,3.55
2022-12-03T17:25:17.705Z,4.07
2022-12-03T17:27:46.181Z,4.13
2022-12-03T17:30:16.032Z,3.33
2022-12-03T17:32:44.544Z,5.10
2022-12-03T17:35:13.544Z,6.13
2022-12-03T17:37:41.701Z,7.07
2022-12-03T17:40:13.414Z,7.43
2022-12-03T17:42:42.060Z,9.48
2022-12-03T17:45:11.290Z,9.57
2022-12-03T17:47:39.773Z,9.93
2022-12-03T17:50:09.291Z,12.20
2022-12-03T17:52:37.366Z,10.35
2022-12-03T17:55:14.176Z,9.68
2022-12-03T17:57:46.329Z,12.10
2022-12-03T18:00:15.096Z,12.93
2022-12-03T18:02:43.298Z,12.00
2022-12-03T18:05:11.892Z,12.27
2022-12-03T18:07:40.264Z,10.18
2022-12-03T18:10:08.877Z,11.25
2022-12-03T18:12:37.034Z,12.02
2022-12-03T18:15:05.838Z,14.00
2022-12-03T18:17:34.015Z,13.00
2022-12-03T18:20:03.364Z,17.33
2022-12-03T18:22:31.666Z,19.35
2022-12-03T18:25:00.359Z,14.00
2022-12-03T18:27:28.440Z,12.00
2022-12-03T18:29:57.524Z,13.90
2022-12-03T18:32:29.334Z,10.32
2022-12-03T18:34:59.702Z,7.82
2022-12-03T18:37:29.537Z,8.45
2022-12-03T18:39:59.133Z,7.47
2022-12-03T18:42:27.716Z,8.05
2022-12-03T18:44:57.319Z,8.88
2022-12-03T18:47:28.732Z,9.65
2022-12-03T18:49:57.790Z,9.52
2022-12-03T18:52:26.344Z,9.38
2022-12-03T18:54:57.112Z,9.48
2022-12-03T18:57:25.171Z,9.80
2022-12-03T18:59:53.884Z,9.00
2022-12-03T19:05:12.232Z,9.63
2022-12-03T19:07:40.530Z,10.18
2022-12-03T19:10:11.422Z,8.98
2022-12-03T19:12:39.911Z,9.20
2022-12-03T19:15:09.290Z,8.82
2022-12-03T19:17:39.991Z,9.18
2022-12-03T19:20:12.005Z,9.32
2022-12-03T19:22:40.464Z,12.45
2022-12-03T19:25:09.809Z,15.18
2022-12-03T19:27:38.344Z,15.05
2022-12-03T19:30:09.375Z,12.52
2022-12-03T19:32:37.742Z,11.65
2022-12-03T19:35:07.942Z,9.75
2022-12-03T19:37:36.404Z,10.80
2022-12-03T19:40:06.054Z,13.55
2022-12-03T19:42:34.383Z,14.68
2022-12-03T19:45:03.313Z,12.18
2022-12-03T19:47:33.734Z,12.15
2022-12-03T19:50:03.034Z,10.05
2022-12-03T19:52:31.433Z,8.77
2022-12-03T19:55:00.098Z,10.65
2022-12-03T19:57:29.027Z,10.07
2022-12-03T19:59:57.918Z,11.70
2022-12-03T20:02:26.613Z,10.77
2022-12-03T20:04:55.504Z,11.95
2022-12-03T20:07:23.815Z,12.48
2022-12-03T20:09:53.037Z,10.75
2022-12-03T20:12:21.807Z,11.85
2022-12-03T20:14:52.125Z,10.77
2022-12-03T20:17:20.535Z,11.27
2022-12-03T20:19:49.507Z,12.27
2022-12-03T20:22:17.806Z,10.60
2022-12-03T20:24:46.625Z,10.27
2022-12-03T20:27:19.637Z,7.05
2022-12-03T20:29:51.480Z,6.07
2022-12-03T20:32:19.941Z,5.70
2022-12-03T20:34:50.195Z,6.22
2022-12-03T20:37:18.508Z,4.60
2022-12-03T20:39:50.353Z,4.68
2022-12-03T20:42:18.705Z,3.17
2022-12-03T20:44:47.525Z,9.48
2022-12-03T20:47:16.704Z,6.72
2022-12-03T20:49:46.165Z,5.40
2022-12-03T20:52:14.938Z,5.00
2022-12-03T20:54:45.275Z,3.03
2022-12-03T20:57:13.536Z,4.20
2022-12-03T20:59:42.249Z,3.88
2022-12-03T21:02:11.371Z,3.55
2022-12-03T21:04:40.387Z,2.78
2022-12-03T21:07:08.821Z,3.95
2022-12-03T21:09:37.826Z,3.70
2022-12-03T21:12:06.247Z,4.07
2022-12-03T21:14:36.187Z,2.75
2022-12-03T21:17:09.089Z,3.75
2022-12-03T21:22:07.556Z,1.90
2022-12-03T21:24:36.776Z,1.90
2022-12-03T21:27:05.191Z,1.77
2022-12-03T21:29:33.874Z,1.80
2022-12-03T21:32:02.161Z,2.00
2022-12-03T21:34:36.081Z,1.83
2022-12-03T21:37:05.246Z,1.90
2022-12-03T21:39:34.027Z,1.42
2022-12-03T21:42:18.791Z,1.38
2022-12-03T21:44:52.174Z,1.20
2022-12-03T21:47:20.845Z,1.63
2022-12-03T21:49:49.668Z,1.60
2022-12-03T21:52:18.100Z,1.30
2022-12-03T21:54:46.854Z,1.60
2022-12-03T21:57:15.285Z,1.65
2022-12-03T21:59:43.868Z,1.65
2022-12-03T22:02:13.081Z,1.20
2022-12-03T22:04:41.894Z,1.70
2022-12-03T22:07:10.363Z,2.00
2022-12-03T22:09:39.706Z,1.50
2022-12-03T22:12:08.185Z,1.58
2022-12-03T22:14:38.169Z,1.67
2022-12-03T22:17:06.455Z,2.22
2022-12-03T22:19:35.066Z,1.52
2022-12-03T22:22:03.402Z,1.40
2022-12-03T22:24:32.132Z,1.95
2022-12-03T22:27:00.445Z,1.50
2022-12-03T22:29:29.233Z,3.03
2022-12-03T22:31:57.572Z,2.28
2022-12-03T22:34:26.229Z,1.63
2022-12-03T22:36:54.481Z,1.90
2022-12-03T22:39:23.144Z,2.50
2022-12-03T22:41:51.620Z,1.48
2022-12-03T22:44:20.466Z,1.73
2022-12-03T22:46:48.839Z,2.38
2022-12-03T22:49:17.620Z,1.48
2022-12-03T22:51:47.555Z,1.52
2022-12-03T22:54:19.431Z,1.60
2022-12-03T22:56:52.130Z,2.33
2022-12-03T22:59:20.714Z,1.65
2022-12-03T23:01:49.046Z,1.95
2022-12-03T23:04:19.075Z,1.58
2022-12-03T23:06:47.453Z,2.10
2022-12-03T23:09:17.256Z,2.13
2022-12-03T23:11:45.839Z,1.77
2022-12-03T23:14:14.537Z,1.60
2022-12-03T23:16:42.700Z,1.52
2022-12-03T23:19:11.620Z,1.20
2022-12-03T23:21:39.794Z,1.70
2022-12-03T23:24:10.528Z,1.52
2022-12-03T23:26:39.745Z,1.60
2022-12-03T23:29:09.347Z,1.50
2022-12-03T23:31:37.611Z,1.48
2022-12-03T23:34:07.827Z,1.75
2022-12-03T23:36:36.148Z,1.48
2022-12-03T23:39:04.607Z,1.20
2022-12-03T23:41:32.643Z,1.55
2022-12-03T23:44:02.049Z,1.75
2022-12-03T23:46:30.301Z,1.70
2022-12-03T23:49:00.369Z,1.52
2022-12-03T23:51:28.652Z,1.05
2022-12-03T23:53:57.209Z,1.30
2022-12-03T23:56:30.802Z,1.23
2022-12-03T23:58:59.571Z,1.00
